createdAt,value
2022-10-05T00:00:20.276Z,3.23
2022-10-05T00:03:12.222Z,4.47
2022-10-05T00:06:00.847Z,4.50
2022-10-05T00:08:48.661Z,4.00
2022-10-05T00:11:36.076Z,4.13
2022-10-05T00:14:29.870Z,3.80
2022-10-05T00:17:24.478Z,3.20
2022-10-05T00:20:17.432Z,3.00
2022-10-05T00:23:05.309Z,2.93
2022-10-05T00:25:53.234Z,2.73
2022-10-05T00:28:41.051Z,3.10
2022-10-05T00:31:32.637Z,3.30
2022-10-05T00:34:20.078Z,3.23
2022-10-05T00:37:08.118Z,3.00
2022-10-05T00:39:56.110Z,2.70
2022-10-05T00:42:53.542Z,3.00
2022-10-05T00:45:49.973Z,2.50
2022-10-05T00:48:49.012Z,2.17
2022-10-05T00:51:38.349Z,3.13
2022-10-05T00:54:25.754Z,2.80
2022-10-05T00:57:16.609Z,3.67
2022-10-05T01:00:12.953Z,3.03
2022-10-05T01:03:21.400Z,2.73
2022-10-05T01:06:12.337Z,3.40
2022-10-05T01:09:18.540Z,2.90
2022-10-05T01:12:25.713Z,2.60
2022-10-05T01:15:17.403Z,2.80
2022-10-05T01:18:11.465Z,2.53
2022-10-05T01:21:01.524Z,2.17
2022-10-05T01:24:08.411Z,3.00
2022-10-05T01:27:14.348Z,2.80
2022-10-05T01:30:08.245Z,2.03
2022-10-05T01:32:56.086Z,2.03
2022-10-05T01:35:46.487Z,2.60
2022-10-05T01:38:40.403Z,2.30
2022-10-05T01:44:13.027Z,2.43
2022-10-05T01:47:04.169Z,2.27
2022-10-05T01:50:12.345Z,2.07
2022-10-05T01:53:15.686Z,2.80
2022-10-05T01:56:07.693Z,2.47
2022-10-05T01:59:16.333Z,2.10
2022-10-05T02:02:10.486Z,1.80
2022-10-05T02:05:03.580Z,2.20
2022-10-05T02:08:08.634Z,1.93
2022-10-05T02:11:16.291Z,1.83
2022-10-05T02:14:08.605Z,1.70
2022-10-05T02:16:58.141Z,1.67
2022-10-05T02:19:48.006Z,2.00
2022-10-05T02:25:13.972Z,2.00
2022-10-05T02:28:04.942Z,1.70
2022-10-05T02:31:12.545Z,1.70
2022-10-05T02:34:18.796Z,1.73
2022-10-05T02:37:20.002Z,1.63
2022-10-05T02:40:24.738Z,1.63
2022-10-05T02:43:22.153Z,1.30
2022-10-05T02:46:18.804Z,1.33
2022-10-05T02:49:12.672Z,1.63
2022-10-05T02:52:08.323Z,1.83
2022-10-05T02:54:56.154Z,1.50
2022-10-05T02:57:50.225Z,1.30
2022-10-05T03:00:43.829Z,1.47
2022-10-05T03:03:40.013Z,1.30
2022-10-05T03:06:30.201Z,1.47
2022-10-05T03:09:18.367Z,1.30
2022-10-05T03:12:12.974Z,1.40
2022-10-05T03:15:07.166Z,1.70
2022-10-05T03:18:03.739Z,1.50
2022-10-05T03:21:03.894Z,1.60
2022-10-05T03:23:57.485Z,1.57
2022-10-05T03:26:51.607Z,1.50
2022-10-05T03:29:52.380Z,1.10
2022-10-05T03:32:48.982Z,1.37
2022-10-05T03:35:46.460Z,1.37
2022-10-05T03:38:42.346Z,1.40
2022-10-05T03:41:34.713Z,1.40
2022-10-05T03:44:22.135Z,1.27
2022-10-05T03:47:13.845Z,1.37
2022-10-05T03:50:13.269Z,1.40
2022-10-05T03:53:03.861Z,1.37
2022-10-05T03:56:04.762Z,1.63
2022-10-05T03:59:02.075Z,1.37
2022-10-05T04:02:01.902Z,1.30
2022-10-05T04:05:00.336Z,1.10
2022-10-05T04:08:00.171Z,1.83
2022-10-05T04:10:50.653Z,1.50
2022-10-05T04:13:43.549Z,1.60
2022-10-05T04:16:41.891Z,1.47
2022-10-05T04:19:41.401Z,1.47
2022-10-05T04:22:32.081Z,1.30
2022-10-05T04:25:25.680Z,1.43
2022-10-05T04:28:17.774Z,1.50
2022-10-05T04:31:06.168Z,1.73
2022-10-05T04:33:58.086Z,1.50
2022-10-05T04:36:49.855Z,1.43
2022-10-05T04:39:44.960Z,1.30
2022-10-05T04:42:38.685Z,1.57
2022-10-05T04:45:37.183Z,1.30
2022-10-05T04:48:25.063Z,1.30
2022-10-05T04:51:20.774Z,1.30
2022-10-05T04:54:14.646Z,1.33
2022-10-05T04:57:09.499Z,1.30
2022-10-05T04:59:58.166Z,1.13
2022-10-05T05:02:45.906Z,1.43
2022-10-05T05:06:12.073Z,1.13
2022-10-05T05:08:57.777Z,1.30
2022-10-05T05:11:57.545Z,1.13
2022-10-05T05:15:02.110Z,1.30
2022-10-05T05:17:55.804Z,1.80
2022-10-05T05:20:55.322Z,1.37
2022-10-05T05:23:51.657Z,1.40
2022-10-05T05:26:48.349Z,1.33
2022-10-05T05:29:45.274Z,1.20
2022-10-05T05:32:40.099Z,1.27
2022-10-05T05:35:32.753Z,1.20
2022-10-05T05:38:27.305Z,1.17
2022-10-05T05:41:15.278Z,1.33
2022-10-05T05:44:24.881Z,1.50
2022-10-05T05:47:15.650Z,1.00
2022-10-05T05:50:24.868Z,1.07
2022-10-05T05:53:30.914Z,1.37
2022-10-05T05:56:20.381Z,1.23
2022-10-05T05:59:10.882Z,1.30
2022-10-05T06:02:19.142Z,1.20
2022-10-05T06:05:21.841Z,1.30
2022-10-05T06:08:18.504Z,0.90
2022-10-05T06:11:23.516Z,1.50
2022-10-05T06:14:18.528Z,1.20
2022-10-05T06:17:10.849Z,1.03
2022-10-05T06:20:04.684Z,1.37
2022-10-05T06:22:53.674Z,1.50
2022-10-05T06:25:57.886Z,1.10
2022-10-05T06:28:48.718Z,2.33
2022-10-05T06:31:38.829Z,1.13
2022-10-05T06:34:29.364Z,1.17
2022-10-05T06:37:35.421Z,1.00
2022-10-05T06:40:22.886Z,1.57
2022-10-05T06:43:19.658Z,1.10
2022-10-05T06:46:13.585Z,1.10
2022-10-05T06:49:19.998Z,1.13
2022-10-05T06:52:24.586Z,1.30
2022-10-05T06:55:17.534Z,1.40
2022-10-05T06:58:10.644Z,1.33
2022-10-05T07:01:04.461Z,2.38
2022-10-05T07:04:25.835Z,1.20
2022-10-05T07:07:23.822Z,0.93
2022-10-05T07:10:29.191Z,1.42
2022-10-05T07:13:17.016Z,0.93
2022-10-05T07:16:33.551Z,1.00
2022-10-05T07:19:40.024Z,0.93
2022-10-05T07:22:46.210Z,0.93
2022-10-05T07:25:33.864Z,1.15
2022-10-05T07:28:21.343Z,1.08
2022-10-05T07:31:29.080Z,1.10
2022-10-05T07:34:25.181Z,1.08
2022-10-05T07:37:34.158Z,0.95
2022-10-05T07:40:38.516Z,0.80
2022-10-05T07:43:57.923Z,0.80
2022-10-05T07:46:52.109Z,0.70
2022-10-05T07:49:42.966Z,0.80
2022-10-05T07:52:35.086Z,0.82
2022-10-05T07:55:24.099Z,0.70
2022-10-05T07:58:14.576Z,0.70
2022-10-05T08:01:05.572Z,0.63
2022-10-05T08:04:12.247Z,0.65
2022-10-05T08:07:12.882Z,0.90
2022-10-05T08:10:06.178Z,1.02
2022-10-05T08:13:08.907Z,0.80
2022-10-05T08:15:59.637Z,0.60
2022-10-05T08:18:50.078Z,0.90
2022-10-05T08:21:37.499Z,0.73
2022-10-05T08:24:38.046Z,1.13
2022-10-05T08:27:25.706Z,0.70
2022-10-05T08:30:14.142Z,1.02
2022-10-05T08:33:13.847Z,0.85
2022-10-05T08:36:07.656Z,0.75
2022-10-05T08:38:56.404Z,0.80
2022-10-05T08:42:02.467Z,0.73
2022-10-05T08:44:53.412Z,0.73
2022-10-05T08:47:59.600Z,0.60
2022-10-05T08:50:47.454Z,0.68
2022-10-05T08:53:53.483Z,0.70
2022-10-05T08:56:50.319Z,0.73
2022-10-05T08:59:44.252Z,0.82
2022-10-05T09:02:36.727Z,0.60
2022-10-05T09:05:24.802Z,0.90
2022-10-05T09:08:21.679Z,0.70
2022-10-05T09:11:09.512Z,0.70
2022-10-05T09:14:02.756Z,0.70
2022-10-05T09:16:59.945Z,0.98
2022-10-05T09:19:50.122Z,0.73
2022-10-05T09:22:58.508Z,0.95
2022-10-05T09:26:00.201Z,0.90
2022-10-05T09:28:48.036Z,0.80
2022-10-05T09:31:41.477Z,0.88
2022-10-05T09:34:48.190Z,1.00
2022-10-05T09:37:49.721Z,0.70
2022-10-05T09:40:42.179Z,0.80
2022-10-05T09:43:29.789Z,0.80
2022-10-05T09:46:26.910Z,0.77
2022-10-05T09:49:14.308Z,0.80
2022-10-05T09:52:06.299Z,0.85
2022-10-05T09:55:25.540Z,0.90
2022-10-05T09:58:35.708Z,0.70
2022-10-05T10:01:34.786Z,0.90
2022-10-05T10:04:38.607Z,0.77
2022-10-05T10:07:45.064Z,0.80
2022-10-05T10:10:53.173Z,1.50
2022-10-05T10:14:00.891Z,0.90
2022-10-05T10:17:11.383Z,1.05
2022-10-05T10:20:04.620Z,0.80
2022-10-05T10:23:04.770Z,0.90
2022-10-05T10:26:11.986Z,0.80
2022-10-05T10:29:08.482Z,0.80
2022-10-05T10:31:56.410Z,0.75
2022-10-05T10:34:46.830Z,0.80
2022-10-05T10:37:37.654Z,0.70
2022-10-05T10:40:45.781Z,0.82
2022-10-05T10:43:51.867Z,0.65
2022-10-05T10:46:40.146Z,0.90
2022-10-05T10:49:46.923Z,0.80
2022-10-05T10:53:03.856Z,0.82
2022-10-05T10:56:00.493Z,1.00
2022-10-05T10:58:48.126Z,0.90
2022-10-05T11:01:38.947Z,0.80
2022-10-05T11:04:29.152Z,1.00
2022-10-05T11:07:33.106Z,0.90
2022-10-05T11:10:26.366Z,0.80
2022-10-05T11:13:20.247Z,0.70
2022-10-05T11:16:15.969Z,0.57
2022-10-05T11:19:06.018Z,1.00
2022-10-05T11:21:59.685Z,0.80
2022-10-05T11:25:09.909Z,0.88
2022-10-05T11:28:03.565Z,0.65
2022-10-05T11:31:05.109Z,0.98
2022-10-05T11:33:53.042Z,0.60
2022-10-05T11:36:40.868Z,0.90
2022-10-05T11:39:30.255Z,0.82
2022-10-05T11:42:36.904Z,0.98
2022-10-05T11:45:26.777Z,0.75
2022-10-05T11:48:20.950Z,0.93
2022-10-05T11:51:22.902Z,0.80
2022-10-05T11:54:25.937Z,0.80
2022-10-05T11:57:24.053Z,0.80
2022-10-05T12:00:12.525Z,0.77
2022-10-05T12:03:15.094Z,0.82
2022-10-05T12:06:22.419Z,0.75
2022-10-05T12:09:38.470Z,0.80
2022-10-05T12:12:28.513Z,0.70
2022-10-05T12:15:26.037Z,0.82
2022-10-05T12:18:24.575Z,0.80
2022-10-05T12:21:15.712Z,1.20
2022-10-05T12:24:07.755Z,0.60
2022-10-05T12:27:02.429Z,1.00
2022-10-05T12:29:49.632Z,1.00
2022-10-05T12:32:39.836Z,0.68
2022-10-05T12:35:48.526Z,0.80
2022-10-05T12:38:47.232Z,1.02
2022-10-05T12:41:37.454Z,0.70
2022-10-05T12:44:47.596Z,0.90
2022-10-05T12:47:35.231Z,1.05
2022-10-05T12:50:31.717Z,0.70
2022-10-05T12:53:29.500Z,1.00
2022-10-05T12:56:21.568Z,0.70
2022-10-05T12:59:27.855Z,0.60
2022-10-05T13:02:30.418Z,0.65
2022-10-05T13:05:36.213Z,0.80
2022-10-05T13:08:31.400Z,0.60
2022-10-05T13:11:29.027Z,0.77
2022-10-05T13:14:16.922Z,0.77
2022-10-05T13:17:11.292Z,1.10
2022-10-05T13:20:02.874Z,0.95
2022-10-05T13:23:10.537Z,0.75
2022-10-05T13:25:58.399Z,0.77
2022-10-05T13:28:51.677Z,0.98
2022-10-05T13:31:46.250Z,0.80
2022-10-05T13:34:52.592Z,1.05
2022-10-05T13:38:06.382Z,0.70
2022-10-05T13:40:53.775Z,0.75
2022-10-05T13:43:53.135Z,0.80
2022-10-05T13:46:48.719Z,0.80
2022-10-05T13:49:41.144Z,0.70
2022-10-05T13:52:43.759Z,0.70
2022-10-05T13:55:50.014Z,0.68
2022-10-05T13:58:43.410Z,0.88
2022-10-05T14:01:47.566Z,0.88
2022-10-05T14:04:45.334Z,0.80
2022-10-05T14:07:48.556Z,0.77
2022-10-05T14:10:36.984Z,0.90
2022-10-05T14:13:26.981Z,0.77
2022-10-05T14:16:14.821Z,0.90
2022-10-05T14:19:05.364Z,0.98
2022-10-05T14:22:00.952Z,0.60
2022-10-05T14:24:52.797Z,1.13
2022-10-05T14:27:58.922Z,0.70
2022-10-05T14:30:59.042Z,0.85
2022-10-05T14:33:47.096Z,0.88
2022-10-05T14:36:36.804Z,1.13
2022-10-05T14:39:28.735Z,0.75
2022-10-05T14:42:18.898Z,0.80
2022-10-05T14:45:20.180Z,0.70
2022-10-05T14:48:11.618Z,0.52
2022-10-05T14:51:03.322Z,0.75
2022-10-05T14:54:01.054Z,0.70
2022-10-05T14:57:07.295Z,0.50
2022-10-05T15:00:13.751Z,0.77
2022-10-05T15:03:03.919Z,0.70
2022-10-05T15:05:53.616Z,1.00
2022-10-05T15:08:41.504Z,0.77
2022-10-05T15:12:01.190Z,1.13
2022-10-05T15:15:00.985Z,0.63
2022-10-05T15:17:58.805Z,0.80
2022-10-05T15:20:46.693Z,0.70
2022-10-05T15:23:47.377Z,0.70
2022-10-05T15:26:36.733Z,1.00
2022-10-05T15:29:42.390Z,0.60
2022-10-05T15:32:29.835Z,0.80
2022-10-05T15:35:36.915Z,0.90
2022-10-05T15:38:26.861Z,0.85
2022-10-05T15:41:20.722Z,0.80
2022-10-05T15:44:23.698Z,0.90
2022-10-05T15:47:18.241Z,1.20
2022-10-05T15:50:17.878Z,1.20
2022-10-05T15:53:24.492Z,0.90
2022-10-05T15:56:25.245Z,0.80
2022-10-05T15:59:25.842Z,0.98
2022-10-05T16:02:18.977Z,0.90
2022-10-05T16:05:06.335Z,0.70
2022-10-05T16:08:13.754Z,0.70
2022-10-05T16:11:02.471Z,1.02
2022-10-05T16:14:00.080Z,0.85
2022-10-05T16:16:53.196Z,1.40
2022-10-05T16:19:49.807Z,1.00
2022-10-05T16:22:45.223Z,0.93
2022-10-05T16:25:44.022Z,0.98
2022-10-05T16:28:34.376Z,1.00
2022-10-05T16:31:21.873Z,1.20
2022-10-05T16:34:39.139Z,0.93
2022-10-05T16:37:45.353Z,1.00
2022-10-05T16:40:37.269Z,1.15
2022-10-05T16:43:37.936Z,1.33
2022-10-05T16:46:44.663Z,0.98
2022-10-05T16:49:44.047Z,1.10
2022-10-05T16:52:33.010Z,0.98
2022-10-05T16:55:26.024Z,1.30
2022-10-05T16:58:19.974Z,1.85
2022-10-05T17:01:19.722Z,1.60
2022-10-05T17:04:21.344Z,1.60
2022-10-05T17:07:11.744Z,1.70
2022-10-05T17:10:03.658Z,1.80
2022-10-05T17:12:59.158Z,1.85
2022-10-05T17:15:55.423Z,1.90
2022-10-05T17:19:01.719Z,1.88
2022-10-05T17:22:02.045Z,1.67
2022-10-05T17:24:52.447Z,2.13
2022-10-05T17:27:52.603Z,1.70
2022-10-05T17:31:00.582Z,1.60
2022-10-05T17:34:00.100Z,1.73
2022-10-05T17:36:53.494Z,1.88
2022-10-05T17:39:48.918Z,2.03
2022-10-05T17:42:38.959Z,2.65
2022-10-05T17:45:32.787Z,2.30
2022-10-05T17:48:40.068Z,1.90
2022-10-05T17:51:49.210Z,2.40
2022-10-05T17:55:08.280Z,1.80
2022-10-05T17:57:59.118Z,2.10
2022-10-05T18:00:56.411Z,2.50
2022-10-05T18:03:51.435Z,1.88
2022-10-05T18:06:48.441Z,2.80
2022-10-05T18:09:37.905Z,2.63
2022-10-05T18:12:26.941Z,2.30
2022-10-05T18:15:21.660Z,1.83
2022-10-05T18:18:33.657Z,1.80
2022-10-05T18:21:29.063Z,2.00
2022-10-05T18:24:25.362Z,3.03
2022-10-05T18:27:16.324Z,3.50
2022-10-05T18:30:05.711Z,3.00
2022-10-05T18:33:12.210Z,2.50
2022-10-05T18:36:08.525Z,2.53
2022-10-05T18:39:01.250Z,1.65
2022-10-05T18:42:07.365Z,1.83
2022-10-05T18:45:11.499Z,2.60
2022-10-05T18:48:19.178Z,1.73
2022-10-05T18:51:21.025Z,2.10
2022-10-05T18:54:24.952Z,2.60
2022-10-05T18:57:36.398Z,3.50
2022-10-05T19:00:25.023Z,3.58
2022-10-05T19:03:30.024Z,3.25
2022-10-05T19:06:21.073Z,4.40
2022-10-05T19:09:11.547Z,2.65
2022-10-05T19:12:11.166Z,2.80
2022-10-05T19:15:10.723Z,3.45
2022-10-05T19:18:09.894Z,3.08
2022-10-05T19:21:17.411Z,2.63
2022-10-05T19:24:04.833Z,3.28
2022-10-05T19:27:04.319Z,3.00
2022-10-05T19:29:57.787Z,2.83
2022-10-05T19:32:45.434Z,2.60
2022-10-05T19:35:47.952Z,2.72
2022-10-05T19:38:53.791Z,2.35
2022-10-05T19:41:53.325Z,2.78
2022-10-05T19:44:59.955Z,2.80
2022-10-05T19:47:55.260Z,2.33
2022-10-05T19:50:53.601Z,2.90
2022-10-05T19:53:46.736Z,3.40
2022-10-05T19:56:35.306Z,3.17
2022-10-05T19:59:26.582Z,2.78
2022-10-05T20:02:18.069Z,3.47
2022-10-05T20:05:09.044Z,3.28
2022-10-05T20:07:56.424Z,2.70
2022-10-05T20:10:44.587Z,3.17
2022-10-05T20:13:34.967Z,2.97
2022-10-05T20:16:51.866Z,3.03
2022-10-05T20:19:58.991Z,2.60
2022-10-05T20:22:46.901Z,2.50
2022-10-05T20:25:37.617Z,1.90
2022-10-05T20:28:31.675Z,1.77
2022-10-05T20:31:20.471Z,2.20
2022-10-05T20:34:08.060Z,1.90
2022-10-05T20:36:55.914Z,2.00
2022-10-05T20:39:43.662Z,2.37
2022-10-05T20:42:31.354Z,1.75
2022-10-05T20:45:19.194Z,1.75
2022-10-05T20:48:06.721Z,1.80
2022-10-05T20:50:54.634Z,1.50
2022-10-05T20:53:42.116Z,1.80
2022-10-05T20:56:30.904Z,1.40
2022-10-05T20:59:18.852Z,1.70
2022-10-05T21:02:07.073Z,1.20
2022-10-05T21:04:54.959Z,1.20
2022-10-05T21:07:42.506Z,1.45
2022-10-05T21:10:30.371Z,1.40
2022-10-05T21:13:18.821Z,1.10
2022-10-05T21:16:09.146Z,1.23
2022-10-05T21:18:56.640Z,1.77
2022-10-05T21:21:45.724Z,1.65
2022-10-05T21:24:33.793Z,1.55
2022-10-05T21:27:21.692Z,1.30
2022-10-05T21:30:09.476Z,1.88
2022-10-05T21:32:57.134Z,1.50
2022-10-05T21:35:44.578Z,1.17
2022-10-05T21:38:32.496Z,1.15
2022-10-05T21:41:22.624Z,1.42
2022-10-05T21:44:10.198Z,1.30
2022-10-05T21:46:57.990Z,1.30
2022-10-05T21:49:45.484Z,1.50
2022-10-05T21:52:34.809Z,1.45
2022-10-05T21:55:22.317Z,1.60
2022-10-05T21:58:10.382Z,1.50
2022-10-05T22:00:58.460Z,1.48
2022-10-05T22:03:46.546Z,1.45
2022-10-05T22:06:35.101Z,1.27
2022-10-05T22:09:22.960Z,1.20
2022-10-05T22:12:10.182Z,1.10
2022-10-05T22:14:57.856Z,1.40
2022-10-05T22:17:46.100Z,1.02
2022-10-05T22:20:35.466Z,1.00
2022-10-05T22:23:22.888Z,1.30
2022-10-05T22:26:12.142Z,1.20
2022-10-05T22:29:01.671Z,1.42
2022-10-05T22:31:49.690Z,1.42
2022-10-05T22:34:37.111Z,1.35
2022-10-05T22:37:25.016Z,1.35
2022-10-05T22:40:12.569Z,1.40
2022-10-05T22:43:00.435Z,1.20
2022-10-05T22:45:47.922Z,1.20
2022-10-05T22:48:35.805Z,1.10
2022-10-05T22:51:23.276Z,1.58
2022-10-05T22:54:10.705Z,1.10
2022-10-05T22:56:58.600Z,1.33
2022-10-05T22:59:46.160Z,1.00
2022-10-05T23:02:37.349Z,1.30
2022-10-05T23:05:24.781Z,1.25
2022-10-05T23:08:12.643Z,1.55
2022-10-05T23:11:07.986Z,1.50
2022-10-05T23:13:57.273Z,1.60
2022-10-05T23:16:45.157Z,1.20
2022-10-05T23:19:33.016Z,1.27
2022-10-05T23:22:21.474Z,1.20
2022-10-05T23:25:09.394Z,1.20
2022-10-05T23:27:57.105Z,1.23
2022-10-05T23:30:45.121Z,1.40
2022-10-05T23:33:32.919Z,1.30
2022-10-05T23:36:21.932Z,1.30
2022-10-05T23:39:09.823Z,1.00
2022-10-05T23:41:57.061Z,1.02
2022-10-05T23:44:44.935Z,1.23
2022-10-05T23:47:32.560Z,1.03
2022-10-05T23:50:21.517Z,1.23
2022-10-05T23:53:08.794Z,1.00
2022-10-05T23:55:57.086Z,1.30
2022-10-05T23:58:45.050Z,1.30
